Terminal Aerodrome Forecast
Issued by NWS

Home | Current Version | Previous Version | Text Only | Print | Product List | Glossary On
Versions: 1 2 3 4 5 6 7 8 9 10 11 12 13 14
000
FTUS43 KAPX 271720
TAFMBL
TAF
KMBL 271720Z 2718/2818 08005KT P6SM SKC
     FM272000 34005KT P6SM SKC
     FM280000 00000KT P6SM SCT200
     FM280600 00000KT P6SM BKN200
     FM281300 17005KT P6SM FEW090 BKN180
      AMD LTD TO CLD VIS AND WIND=

USA.gov is the U.S. government's official web portal to all federal, state and local government web resources and services.